Portada
METAR-TAF:

METAR-TAF

Aeroports :

Koné, Nova Caledònia

latitud: 21-03-12S, longitud: 164-50-18E, altitud: 7 m

METAR: manca

Hora: 21:23 (10:23 UTC)

Pronòstic

L'informe es va fer fa 5 hores i 23 minuts, a les 05:00 UTC
Pronòstic vàlid del 05 a les 06 UTC al 06 a les 06 UTC
Vent 12 kt del Est/Nord-Est
Visibilitat 10 km o més
Escasses núvols a una alçada de 1500 ft
Núvols disperses a una alçada de 4000 ft
Probabilitat 30% :
Temporalment
l' 05 a les 06 UTC al 06 a les 06 UTC
Vent 15 kt del Est/Nord-Est amb ràfegues de 25 kt

TAF: NWWD 050500Z 0506/0606 07012KT 9999 FEW015 SCT040 PROB30 TEMPO 0506/0606 07015G25KT

Observacions i pronòstics meteorològics de més de 4000 aeroports (METAR i TAF).

Les estacions disponibles són els punts grocs i vermells al mapa.

Posi el ratolí al punt desitjat per veure el nom de l'estació.

Feu clic per veure les observacions i els pronòstics meteorològics.

Per canviar el mapa: feu clic els botons verds amb una creu de color negre per apropar; al botó verd amb un guió per allunyar la imatge; o en les fletxes verdes per a mapes adjacents.


METAR-TAF: